Portada
METAR-TAF:

METAR-TAF

Aeroports :

Mangalore, Índia

latitud: 12-55N, longitud: 074-53E, altitud: 102 m

Observació

L'informe es va fer fa 38 minuts, a les 09:30 UTC
Vent 6 kt del Oest
Temperatura 33°C
Humitat 49%
Pressió 1008 hPa
Visibilitat: 6000 m
Escasses núvols a una alçada de 1500 ft

METAR: VOML 190930Z 26006KT 6000 FEW015 33/21 Q1008 NOSIG

Hora: 15:38 (10:08 UTC)

Pronòstic

L'informe es va fer fa 2 hores i 8 minuts, a les 08:00 UTC
Pronòstic vàlid del 19 a les 09 UTC al 19 a les 18 UTC
Vent 10 kt del Oest
Visibilitat: 6000 m
Escasses núvols a una alçada de 1500 ft

TAF: VOML 190800Z 1909/1918 27010KT 6000 FEW015

Observacions i pronòstics meteorològics de més de 4000 aeroports (METAR i TAF).

Les estacions disponibles són els punts grocs i vermells al mapa.

Posi el ratolí al punt desitjat per veure el nom de l'estació.

Feu clic per veure les observacions i els pronòstics meteorològics.

Per canviar el mapa: feu clic els botons verds amb una creu de color negre per apropar; al botó verd amb un guió per allunyar la imatge; o en les fletxes verdes per a mapes adjacents.


METAR-TAF: